Aviation Digital Data Service (ADDS)

Output produced by METARs form (1812 UTC 14 August 2018)
found at http://www.aviationweather.gov/adds/metars/
 
LCRA 141750Z 28014KT CAVOK 28/23 Q1004 NOSIG
TAF LCRA 141624Z 1418/1512 25015KT 9999 FEW050 
     BECMG 1418/1421 VRB05KT 
     BECMG 1506/1509 26015KT
       
LCEN 141750Z 29014KT CAVOK 29/19 Q1005 NOSIG
TAF LCEN 141640Z 1418/1518 28012KT CAVOK
       
LCLK 141800Z 22005KT CAVOK 28/27 Q1005 NOSIG
TAF LCLK 141730Z 1418/1518 23010KT CAVOK 
     BECMG 1418/1420 30008KT 
     PROB30 
     TEMPO 1500/1504 1500 VCFG BKN002 
     BECMG 1506/1508 15010KT 
     BECMG 1509/1512 21016KT 
     BECMG 1516/1518 30008KT
       
LCPH 141800Z 31008KT CAVOK 27/22 Q1006
TAF LCPH 141730Z 1418/1518 29012KT CAVOK 
     BECMG 1420/1422 35007KT 
     BECMG 1506/1509 28014KT 
     BECMG 1516/1518 34008KT
       
LCRA 141750Z 28014KT CAVOK 28/23 Q1004 NOSIG
TAF LCRA 141624Z 1418/1512 25015KT 9999 FEW050 
     BECMG 1418/1421 VRB05KT 
     BECMG 1506/1509 26015KT
       
LCLK 141800Z 22005KT CAVOK 28/27 Q1005 NOSIG
TAF LCLK 141730Z 1418/1518 23010KT CAVOK 
     BECMG 1418/1420 30008KT 
     PROB30 
     TEMPO 1500/1504 1500 VCFG BKN002 
     BECMG 1506/1508 15010KT 
     BECMG 1509/1512 21016KT 
     BECMG 1516/1518 30008KT
       
LCPH 141800Z 31008KT CAVOK 27/22 Q1006
TAF LCPH 141730Z 1418/1518 29012KT CAVOK 
     BECMG 1420/1422 35007KT 
     BECMG 1506/1509 28014KT 
     BECMG 1516/1518 34008KT